• Join FlightAware (Why Join?)
  • Login
  • US Flag GB Flag 
03:46 EST


 

Airport Tracker/Info


-or-


 

Live Flight TrackerFlight Track Log ✈ SWA558 ✈ 22-Apr-2013 ✈ KRSW - KMDW

Flight Track Log - Related Links

Times and Time Zones

All times are in EDT time to prevent confusion due to time zone crossing. See the SWA558 flight status page for this flight to view local times or setup timezone preferences in your user account.

Time Position Orientation Groundspeed Altitude Reporting Facility
EDT Latitude Longitude Course Direction KTS MPH feet Rate Location/Type
13:02 26.6239 -81.7153 347° North 232 267 3,600  Level Miami Center
13:03 26.6928 -81.7206 356° North 257 296 7,100 3,540 Climbing Miami Center
13:04 26.7717 -81.7283 355° North 268 308 10,700 2,880 Climbing Miami Center
13:05 26.8656 -81.7322 358° North 299 344 12,900 2,520 Climbing Miami Center
13:06 26.9675 -81.7411 356° North 337 388 15,800 3,060 Climbing Miami Center
13:07 27.1885 -81.7971 347° North  Level FlightAware Approximate
13:07 27.0714 -81.7597 351° North 370 426 19,100  Level Miami Center
13:08 27.1744 -81.7942 343° North 376 433 21,500 2,280 Climbing Miami Center
13:09 27.2839 -81.8317 343° North 394 453 23,700 2,100 Climbing Miami Center
13:10 27.3850 -81.8642 344° North 414 476 25,800 1,980 Climbing Miami Center
13:11 27.4983 -81.9064 342° North 421 484 27,700 1,800 Climbing Miami Center
13:12 27.6281 -81.9519 343° North 430 495 29,500 1,140 Climbing Miami Center
13:13 27.7497 -81.9950 343° North 442 509 30,000 240 Climbing Miami Center
13:14 27.8703 -82.0122 353° North 442 509 30,000 60 Level Miami Center
13:16 28.1392 -82.1111 342° North 434 499 30,300 600 Climbing Jacksonville Center
13:17 28.2461 -82.1786 331° Northwest 434 499 32,000 840 Climbing Jacksonville Center
13:18 28.3508 -82.2464 330° Northwest 434 499 32,000  Level Jacksonville Center
13:19 28.4594 -82.3142 331° Northwest 439 505 32,000  Level Jacksonville Center
13:20 28.5642 -82.3819 330° Northwest 439 505 32,000 420 Level Jacksonville Center
13:21 28.6708 -82.4500 331° Northwest 439 505 32,900 1,140 Climbing Jacksonville Center
13:22 28.7756 -82.5136 332° Northwest 439 505 34,300 1,500 Climbing Jacksonville Center
13:23 28.8819 -82.5844 330° Northwest 439 505 35,900 840 Climbing Jacksonville Center
13:24 28.9867 -82.6553 329° Northwest 439 505 36,000 420 Climbing Jacksonville Center
13:25 29.0931 -82.7214 332° Northwest 439 505 36,800 900 Climbing Jacksonville Center
13:26 29.1975 -82.7903 330° Northwest 434 499 37,800 600 Climbing Jacksonville Center
13:27 29.3019 -82.8592 330° Northwest 434 499 38,000 60 Climbing Jacksonville Center
13:28 29.4083 -82.9258 331° Northwest 434 499 38,000  Level Jacksonville Center
13:29 29.5067 -82.9903 330° Northwest 441 507 38,000  Level Jacksonville Center
13:30 29.6131 -83.0575 331° Northwest 441 507 38,000  Level Jacksonville Center
13:31 29.7297 -83.1128 338° Northwest 441 507 38,000  Level Jacksonville Center
13:32 29.8403 -83.1631 338° Northwest 442 509 38,000  Level Jacksonville Center
13:33 29.9572 -83.2161 339° North 442 509 38,000  Level Jacksonville Center
13:34 30.0739 -83.2694 338° Northwest 437 503 38,000  Level Jacksonville Center
13:35 30.1886 -83.3228 338° Northwest 437 503 38,000  Level Jacksonville Center
13:36 30.3031 -83.3786 337° Northwest 437 503 38,000  Level Jacksonville Center
13:37 30.4178 -83.4297 339° North 437 503 38,000  Level Jacksonville Center
13:38 30.5283 -83.4811 338° Northwest 437 503 38,000  Level Jacksonville Center
13:39 30.6408 -83.5347 338° Northwest 437 503 38,000  Level Jacksonville Center
13:40 30.7511 -83.5886 337° Northwest 429 494 38,000  Level Jacksonville Center
13:41 30.8656 -83.6406 339° North 429 494 38,000  Level Jacksonville Center
13:42 30.9758 -83.6969 336° Northwest 434 499 38,000  Level Jacksonville Center
13:43 31.0864 -83.7514 337° Northwest 428 493 38,000  Level Jacksonville Center
13:45 31.2728 -83.8422 337° Northwest 452 520 38,000  Level Atlanta Center
13:46 31.3875 -83.8978 338° Northwest 452 520 38,000  Level Atlanta Center
13:47 31.5044 -83.9536 338° Northwest 452 520 38,000  Level Atlanta Center
13:48 31.6297 -83.9878 347° North 452 520 38,000  Level Atlanta Center
13:49 31.7550 -84.0119 351° North 452 520 38,000  Level Atlanta Center
13:51 31.9950 -84.0633 350° North 458 527 38,000  Level Atlanta Center
13:52 32.1222 -84.0928 349° North 458 527 38,000  Level Atlanta Center
13:53 32.2475 -84.1222 349° North 458 527 38,000  Level Atlanta Center
13:54 32.3747 -84.1494 350° North 458 527 38,000  Level Atlanta Center
13:55 32.5000 -84.1792 349° North 458 527 38,000  Level Atlanta Center
13:56 32.6272 -84.2067 350° North 458 527 38,000  Level Atlanta Center
13:57 32.7567 -84.2364 349° North 458 527 38,000  Level Atlanta Center
13:58 32.8819 -84.2664 349° North 458 527 38,000  Level Atlanta Center
13:59 33.0069 -84.2939 350° North 464 534 38,000  Level Atlanta Center
14:00 33.1386 -84.3267 348° North 471 542 38,000  Level Atlanta Center
14:01 33.2617 -84.3544 349° North 464 534 38,000  Level Atlanta Center
14:02 33.4033 -84.3847 350° North 470 541 38,000  Level Atlanta Center
14:03 33.5328 -84.4150 349° North 463 533 38,000  Level Atlanta Center
14:04 33.6433 -84.4431 348° North 464 534 38,000  Level Atlanta Center
14:05 33.7747 -84.4736 349° North 467 537 38,000  Level Atlanta Center
14:06 33.9019 -84.5042 349° North 465 535 38,000  Level Atlanta Center
14:07 34.0333 -84.5375 348° North 472 543 38,000  Level Atlanta Center
14:08 34.1667 -84.5661 350° North 478 550 38,000  Level Atlanta Center
14:09 34.2961 -84.5969 349° North 481 554 38,000  Level Atlanta Center
14:10 34.4272 -84.6306 348° North 481 554 38,000  Level Atlanta Center
14:11 34.5692 -84.6644 349° North 481 554 38,000  Level Atlanta Center
14:12 34.6817 -84.6931 348° North 474 545 38,000  Level Atlanta Center
14:13 34.8108 -84.7244 349° North 468 539 38,000  Level Atlanta Center
14:14 34.9400 -84.7583 348° North 468 539 38,000  Level Atlanta Center
14:15 35.0714 -84.7900 349° North 468 539 38,000  Level Atlanta Center
14:16 35.2006 -84.8242 348° North 468 539 38,000  Level Atlanta Center
14:17 35.3275 -84.8558 348° North 468 539 38,000  Level Atlanta Center
14:18 35.4544 -84.8878 348° North 468 539 38,000  Level Atlanta Center
14:19 35.5817 -84.9197 348° North 468 539 38,000  Level Atlanta Center
14:20 35.7128 -84.9544 348° North 468 539 38,000  Level Atlanta Center
14:21 35.8397 -84.9839 349° North 468 539 38,000  Level Atlanta Center
14:23 36.1358 -85.0594 348° North 470 541 38,000  Level Indianapolis Center
14:24 36.2636 -85.0925 348° North 469 540 38,000  Level Indianapolis Center
14:25 36.3922 -85.1253 348° North 471 542 38,000  Level Indianapolis Center
14:26 36.5211 -85.1589 348° North 472 543 38,000  Level Indianapolis Center
14:27 36.6494 -85.1922 348° North 470 541 38,000  Level Indianapolis Center
14:28 36.7772 -85.2258 348° North 469 540 38,000  Level Indianapolis Center
14:29 36.9294 -85.2658 348° North 465 535 38,000  Level Indianapolis Center
14:30 37.0550 -85.2969 349° North 466 536 38,000  Level Indianapolis Center
14:31 37.1808 -85.3306 348° North 462 532 38,000  Level Indianapolis Center
14:32 37.3072 -85.3639 348° North 462 532 38,000  Level Indianapolis Center
14:34 37.4333 -85.3972 348° North 462 532 38,000  Level Indianapolis Center
14:35 37.5819 -85.4328 349° North 464 534 38,000  Level Indianapolis Center
14:36 37.7089 -85.4583 351° North 461 531 38,000 -180 Level Indianapolis Center
14:37 37.8364 -85.4844 351° North 462 532 37,700 -600 Descending Indianapolis Center
14:38 37.9508 -85.5067 351° North 460 529 36,800 -960 Descending Indianapolis Center
14:39 38.0775 -85.5333 351° North 460 529 35,800 -1,020 Descending Indianapolis Center
14:40 38.2289 -85.5639 351° North 456 525 34,700 -1,020 Descending Indianapolis Center
14:41 38.3528 -85.5897 351° North 451 519 33,800 -840 Descending Indianapolis Center
14:42 38.4742 -85.6144 351° North 444 511 33,000 -420 Descending Indianapolis Center
14:43 38.5947 -85.6397 351° North 440 506 33,000 -120 Level Indianapolis Center
14:44 38.7150 -85.6664 350° North 439 505 32,800 -600 Descending Indianapolis Center
14:45 38.8353 -85.6919 351° North 439 505 31,800 -1,020 Descending Indianapolis Center
14:46 38.9825 -85.7219 351° North 443 510 30,700 -900 Descending Indianapolis Center
14:47 39.1050 -85.7483 351° North 445 512 30,000 -780 Descending Indianapolis Center
14:48 39.2258 -85.7736 351° North 441 507 29,100 -540 Descending Indianapolis Center
14:49 39.3469 -85.8003 350° North 440 506 28,900 -600 Descending Indianapolis Center
14:50 39.4658 -85.8247 351° North 434 499 27,900 -1,080 Descending Indianapolis Center
14:51 39.5825 -85.8514 350° North 428 493 26,800 -1,080 Descending Indianapolis Center
14:52 39.7103 -85.8778 351° North 418 481 25,700 -1,020 Descending Indianapolis Center
14:53 39.8261 -85.9033 350° North 417 480 24,700 -840 Descending Indianapolis Center
14:54 39.9394 -85.9275 351° North 412 474 24,000 -360 Descending Indianapolis Center
14:55 40.0531 -85.9678 345° North 400 460 24,000 -60 Level Indianapolis Center
14:56 40.1600 -86.0167 341° North 401 461 23,900 -600 Descending Indianapolis Center
14:57 40.2608 -86.0633 341° North 401 461 22,800 -960 Descending Indianapolis Center
14:58 40.3667 -86.1133 340° North 400 460 22,000 -420 Descending Indianapolis Center
14:59 40.4900 -86.1694 341° North 399 459 22,000 -480 Level Indianapolis Center
15:00 40.5961 -86.2192 340° North 398 458 21,100 -1,440 Descending Indianapolis Center
15:01 40.7006 -86.2675 341° North 396 456 19,100 -2,040 Descending Indianapolis Center
15:02 40.8022 -86.3158 340° North 387 445 17,000 -1,680 Descending Indianapolis Center
15:03 40.9064 -86.3642 341° North 386 444 15,700 -2,460 Descending Indianapolis Center
15:05 41.0175 -86.4186 340° North 371 427 11,600 -2,160 Descending Chicago Center
15:06 41.0914 -86.4992 321° Northwest 351 404 11,000 -720 Descending Chicago Center
15:07 41.1536 -86.5958 311° West 344 396 10,200 -480 Descending Chicago Center
15:08 41.2150 -86.6908 311° West 340 391 10,100 -120 Descending Chicago Center
15:09 41.2850 -86.7972 311° West 341 392 10,000 -180 Descending Chicago Center
15:10 41.3406 -86.8839 311° West 315 362 9,800 -900 Descending Chicago Center
15:11 41.3900 -86.9617 310° West 284 327 8,200 -1,620 Descending Chicago Center
15:12 41.4417 -87.0428 310° West 286 329 6,500 -1,080 Descending Chicago Center
15:13 41.5014 -87.1344 311° West 280 322 6,000 -300 Descending Chicago Center
15:14 41.5167 -87.2000 287° West 276 318 6,000  Level Chicago TRACON
15:15 41.5167 -87.3000 270° West 279 321 6,000 -420 Level Chicago TRACON
15:16 41.5833 -87.3833 317° Northwest 277 319 5,200 -780 Descending Chicago TRACON
15:16 41.5922 -87.3922 323° Northwest 276 318 5,000 -1,200 Descending Chicago Center
15:17 41.6472 -87.4622 316° Northwest 276 318 3,600 -1,080 Descending Chicago Center
15:18 41.7111 -87.5422 317° Northwest 272 313 2,900 -780 Descending Chicago Center
15:19 41.7539 -87.6064 312° West 255 293 2,000 -600 Descending Chicago Center
15:20 41.7833 -87.6500 312° West 232 267 2,000 -300 Level Chicago TRACON
15:21 41.8167 -87.7000 312° West 167 192 1,600 -420 Descending Chicago TRACON
15:23 41.7833 -87.7500 334° Northwest  Level FlightAware Approximate